createdAt,value
2023-02-05T00:00:22.260Z,44.63
2023-02-05T00:01:22.220Z,44.31
2023-02-05T00:02:22.284Z,44.63
2023-02-05T00:03:22.213Z,43.83
2023-02-05T00:04:22.193Z,44.63
2023-02-05T00:05:22.200Z,44.96
2023-02-05T00:06:22.157Z,44.31
2023-02-05T00:07:22.142Z,43.83
2023-02-05T00:08:22.131Z,42.54
2023-02-05T00:09:22.106Z,43.83
2023-02-05T00:10:22.131Z,43.83
2023-02-05T00:11:22.080Z,44.79
2023-02-05T00:12:22.072Z,44.31
2023-02-05T00:13:22.062Z,44.63
2023-02-05T00:14:22.032Z,44.15
2023-02-05T00:15:22.043Z,44.63
2023-02-05T00:16:22.056Z,43.51
2023-02-05T00:17:22.008Z,43.83
2023-02-05T00:18:21.991Z,43.34
2023-02-05T00:19:21.965Z,43.51
2023-02-05T00:20:21.966Z,45.44
2023-02-05T00:21:21.956Z,45.12
2023-02-05T00:22:21.935Z,44.63
2023-02-05T00:23:21.946Z,44.15
2023-02-05T00:24:21.903Z,44.15
2023-02-05T00:25:21.912Z,44.63
2023-02-05T00:26:21.876Z,45.28
2023-02-05T00:27:21.893Z,44.63
2023-02-05T00:28:21.891Z,45.28
2023-02-05T00:29:21.844Z,44.63
2023-02-05T00:30:21.857Z,43.99
2023-02-05T00:31:21.955Z,45.12
2023-02-05T00:32:21.807Z,45.12
2023-02-05T00:33:21.788Z,44.96
2023-02-05T00:34:21.774Z,47.37
2023-02-05T00:35:21.799Z,45.60
2023-02-05T00:36:21.761Z,45.92
2023-02-05T00:37:21.735Z,45.44
2023-02-05T00:38:21.735Z,44.63
2023-02-05T00:39:21.715Z,47.53
2023-02-05T00:40:21.706Z,46.25
2023-02-05T00:41:21.693Z,45.60
2023-02-05T00:42:21.656Z,45.92
2023-02-05T00:43:21.665Z,45.60
2023-02-05T00:44:21.636Z,45.76
2023-02-05T00:45:21.637Z,45.60
2023-02-05T00:46:21.819Z,46.08
2023-02-05T00:47:21.597Z,45.60
2023-02-05T00:48:21.575Z,44.79
2023-02-05T00:49:21.569Z,45.12
2023-02-05T00:50:21.569Z,46.57
2023-02-05T00:51:21.566Z,45.44
2023-02-05T00:52:21.546Z,45.12
2023-02-05T00:53:21.515Z,44.96
2023-02-05T00:54:21.509Z,45.28
2023-02-05T00:55:21.484Z,45.28
2023-02-05T00:56:21.502Z,44.63
2023-02-05T00:57:21.469Z,46.41
2023-02-05T00:58:21.444Z,44.63
2023-02-05T00:59:23.172Z,45.12
2023-02-05T01:00:21.428Z,46.08
2023-02-05T01:01:21.431Z,44.47
2023-02-05T01:02:21.430Z,44.63
2023-02-05T01:03:21.377Z,43.51
2023-02-05T01:04:21.367Z,44.63
2023-02-05T01:05:21.358Z,44.63
2023-02-05T01:06:21.360Z,44.79
2023-02-05T01:07:21.330Z,43.51
2023-02-05T01:08:21.319Z,43.99
2023-02-05T01:09:21.317Z,44.31
2023-02-05T01:10:21.286Z,48.34
2023-02-05T01:11:21.294Z,44.15
2023-02-05T01:12:21.263Z,45.76
2023-02-05T01:13:21.275Z,44.15
2023-02-05T01:14:21.243Z,44.79
2023-02-05T01:15:21.223Z,44.79
2023-02-05T01:16:21.293Z,44.31
2023-02-05T01:17:21.196Z,45.92
2023-02-05T01:18:21.212Z,44.63
2023-02-05T01:19:21.166Z,43.99
2023-02-05T01:20:21.154Z,43.67
2023-02-05T01:21:21.158Z,43.51
2023-02-05T01:22:21.161Z,47.21
2023-02-05T01:23:21.112Z,43.67
2023-02-05T01:24:21.119Z,43.83
2023-02-05T01:25:21.106Z,43.67
2023-02-05T01:26:21.105Z,43.18
2023-02-05T01:27:21.058Z,43.83
2023-02-05T01:28:21.056Z,43.99
2023-02-05T01:30:33.510Z,43.02
2023-02-05T01:31:30.935Z,43.02
2023-02-05T01:32:30.806Z,42.86
2023-02-05T01:33:30.797Z,42.54
2023-02-05T01:34:30.787Z,42.54
2023-02-05T01:35:30.774Z,43.51
2023-02-05T01:36:30.768Z,43.51
2023-02-05T01:37:30.736Z,43.67
2023-02-05T01:38:30.724Z,43.34
2023-02-05T01:39:30.703Z,42.86
2023-02-05T01:40:30.713Z,42.86
2023-02-05T01:41:30.706Z,43.83
2023-02-05T01:42:30.675Z,43.02
2023-02-05T01:43:30.653Z,43.67
2023-02-05T01:44:30.660Z,43.18
2023-02-05T01:45:30.677Z,42.70
2023-02-05T01:46:30.638Z,42.54
2023-02-05T01:47:30.607Z,43.02
2023-02-05T01:48:30.589Z,43.34
2023-02-05T01:49:30.574Z,42.70
2023-02-05T01:50:30.562Z,43.34
2023-02-05T01:51:30.550Z,43.18
2023-02-05T01:52:30.530Z,42.54
2023-02-05T01:53:30.539Z,43.02
2023-02-05T01:54:30.516Z,43.67
2023-02-05T01:55:30.502Z,44.63
2023-02-05T01:56:30.491Z,44.47
2023-02-05T01:57:30.468Z,43.99
2023-02-05T01:58:30.460Z,43.34
2023-02-05T01:59:30.434Z,44.63
2023-02-05T02:00:30.429Z,43.83
2023-02-05T02:01:30.445Z,49.31
2023-02-05T02:02:30.404Z,43.99
2023-02-05T02:03:30.385Z,43.18
2023-02-05T02:04:30.379Z,45.60
2023-02-05T02:05:30.351Z,44.15
2023-02-05T02:06:30.353Z,43.51
2023-02-05T02:07:30.319Z,43.83
2023-02-05T02:08:30.319Z,44.15
2023-02-05T02:09:30.313Z,44.47
2023-02-05T02:10:30.289Z,43.51
2023-02-05T02:11:30.417Z,43.99
2023-02-05T02:12:30.261Z,43.83
2023-02-05T02:13:30.244Z,43.18
2023-02-05T02:14:30.230Z,43.67
2023-02-05T02:15:30.217Z,47.37
2023-02-05T02:16:30.232Z,53.17
2023-02-05T02:17:30.192Z,43.34
2023-02-05T02:18:30.191Z,43.34
2023-02-05T02:19:30.173Z,44.15
2023-02-05T02:20:30.179Z,43.99
2023-02-05T02:21:30.151Z,44.15
2023-02-05T02:22:30.133Z,43.67
2023-02-05T02:23:30.114Z,44.47
2023-02-05T02:24:30.113Z,45.60
2023-02-05T02:25:30.084Z,43.99
2023-02-05T02:26:31.303Z,43.51
2023-02-05T02:27:30.067Z,44.63
2023-02-05T02:28:30.072Z,45.12
2023-02-05T02:29:30.038Z,44.31
2023-02-05T02:30:30.070Z,44.15
2023-02-05T02:31:30.064Z,44.47
2023-02-05T02:32:30.005Z,44.31
2023-02-05T02:33:29.987Z,45.92
2023-02-05T02:34:29.973Z,43.99
2023-02-05T02:35:29.954Z,43.83
2023-02-05T02:36:29.963Z,44.96
2023-02-05T02:37:29.927Z,45.12
2023-02-05T02:38:29.913Z,45.60
2023-02-05T02:39:29.893Z,43.18
2023-02-05T02:40:29.894Z,44.79
2023-02-05T02:41:29.897Z,43.51
2023-02-05T02:42:29.863Z,44.47
2023-02-05T02:43:29.833Z,43.99
2023-02-05T02:44:29.840Z,44.63
2023-02-05T02:45:29.815Z,45.44
2023-02-05T02:46:29.866Z,45.12
2023-02-05T02:47:29.797Z,43.99
2023-02-05T02:48:29.789Z,56.24
2023-02-05T02:49:29.764Z,43.51
2023-02-05T02:50:29.747Z,44.63
2023-02-05T02:51:29.754Z,57.85
2023-02-05T02:52:29.732Z,45.92
2023-02-05T02:53:29.710Z,43.67
2023-02-05T02:54:29.701Z,44.79
2023-02-05T02:55:29.693Z,43.99
2023-02-05T02:56:29.689Z,43.34
2023-02-05T02:57:29.661Z,52.05
2023-02-05T02:58:29.657Z,44.63
2023-02-05T02:59:29.644Z,46.89
2023-02-05T03:00:29.679Z,54.95
2023-02-05T03:01:29.627Z,43.99
2023-02-05T03:02:29.592Z,50.92
2023-02-05T03:03:29.629Z,43.51
2023-02-05T03:04:29.565Z,46.89
2023-02-05T03:05:29.548Z,44.31
2023-02-05T03:06:29.545Z,47.05
2023-02-05T03:07:29.532Z,46.89
2023-02-05T03:08:29.512Z,45.12
2023-02-05T03:09:29.502Z,44.96
2023-02-05T03:10:29.492Z,43.83
2023-02-05T03:11:39.171Z,43.99
2023-02-05T03:12:29.459Z,44.15
2023-02-05T03:13:29.444Z,49.63
2023-02-05T03:14:29.431Z,43.99
2023-02-05T03:15:29.420Z,45.12
2023-02-05T03:16:29.519Z,44.63
2023-02-05T03:17:29.405Z,44.31
2023-02-05T03:18:29.393Z,44.63
2023-02-05T03:19:29.374Z,46.73
2023-02-05T03:20:29.350Z,43.51
2023-02-05T03:21:29.348Z,44.15
2023-02-05T03:22:29.350Z,44.96
2023-02-05T03:23:29.309Z,46.08
2023-02-05T03:24:29.322Z,44.15
2023-02-05T03:25:29.303Z,43.67
2023-02-05T03:26:29.285Z,44.47
2023-02-05T03:27:29.272Z,46.08
2023-02-05T03:28:29.239Z,45.12
2023-02-05T03:29:29.233Z,49.15
2023-02-05T03:30:29.257Z,43.99
2023-02-05T03:31:29.240Z,44.63
2023-02-05T03:32:29.213Z,43.51
2023-02-05T03:33:29.189Z,51.40
2023-02-05T03:34:29.180Z,44.31
2023-02-05T03:35:29.149Z,44.63
2023-02-05T03:36:29.141Z,51.72
2023-02-05T03:37:29.140Z,47.70
2023-02-05T03:38:29.111Z,44.63
2023-02-05T03:39:29.100Z,48.82
2023-02-05T03:40:29.102Z,46.08
2023-02-05T03:41:29.089Z,45.76
2023-02-05T03:42:29.077Z,46.25
2023-02-05T03:43:29.053Z,48.82
2023-02-05T03:44:29.042Z,45.28
2023-02-05T03:45:29.072Z,45.28
2023-02-05T03:46:29.000Z,45.44
2023-02-05T03:47:29.002Z,44.31
2023-02-05T03:48:28.980Z,44.47
2023-02-05T03:49:28.961Z,50.76
2023-02-05T03:50:28.952Z,44.63
2023-02-05T03:51:28.932Z,46.08
2023-02-05T03:52:28.931Z,46.08
2023-02-05T03:53:28.911Z,45.76
2023-02-05T03:54:28.901Z,46.25
2023-02-05T03:55:28.877Z,45.92
2023-02-05T03:56:28.885Z,49.63
2023-02-05T03:57:28.860Z,45.12
2023-02-05T03:58:28.838Z,48.50
2023-02-05T03:59:28.830Z,45.28
2023-02-05T04:00:28.814Z,46.08
2023-02-05T04:01:28.858Z,45.44
2023-02-05T04:02:28.866Z,44.63
2023-02-05T04:03:28.767Z,45.92
2023-02-05T04:04:28.758Z,44.79
2023-02-05T04:05:28.737Z,50.76
2023-02-05T04:06:28.750Z,45.76
2023-02-05T04:07:28.727Z,47.05
2023-02-05T04:08:28.715Z,48.98
2023-02-05T04:09:28.676Z,57.04
2023-02-05T04:10:28.683Z,44.96
2023-02-05T04:11:28.676Z,45.76
2023-02-05T04:12:28.656Z,48.18
2023-02-05T04:13:28.632Z,47.53
2023-02-05T04:14:28.635Z,45.92
2023-02-05T04:15:28.605Z,47.05
2023-02-05T04:16:28.634Z,46.73
2023-02-05T04:17:28.590Z,48.02
2023-02-05T04:18:28.568Z,44.63
2023-02-05T04:19:28.552Z,46.08
2023-02-05T04:20:28.539Z,54.62
2023-02-05T04:21:28.524Z,49.79
2023-02-05T04:22:28.525Z,46.57
2023-02-05T04:23:28.496Z,47.21
2023-02-05T04:24:28.495Z,48.02
2023-02-05T04:25:28.467Z,48.02
2023-02-05T04:26:28.457Z,48.98
2023-02-05T04:27:28.457Z,47.53
2023-02-05T04:28:28.429Z,46.25
2023-02-05T04:29:28.434Z,46.25
2023-02-05T04:30:28.423Z,48.66
2023-02-05T04:31:28.417Z,49.15
2023-02-05T04:32:28.399Z,47.86
2023-02-05T04:33:28.369Z,48.02
2023-02-05T04:34:28.361Z,52.53
2023-02-05T04:35:28.372Z,48.82
2023-02-05T04:36:28.322Z,47.86
2023-02-05T04:37:28.346Z,57.20
2023-02-05T04:38:28.292Z,53.98
2023-02-05T04:39:28.281Z,52.05
2023-02-05T04:40:28.273Z,51.88
2023-02-05T04:41:28.266Z,55.11
2023-02-05T04:42:28.275Z,47.86
2023-02-05T04:43:28.250Z,47.21
2023-02-05T04:44:28.239Z,47.37
2023-02-05T04:45:28.219Z,46.57
2023-02-05T04:46:28.195Z,48.34
2023-02-05T04:47:28.210Z,47.05
2023-02-05T04:48:28.175Z,49.31
2023-02-05T04:49:28.165Z,48.50
2023-02-05T04:50:28.146Z,52.37
2023-02-05T04:51:28.152Z,47.53
2023-02-05T04:52:28.141Z,57.85
2023-02-05T04:53:28.109Z,46.73
2023-02-05T04:54:28.097Z,50.60
2023-02-05T04:55:28.079Z,53.17
2023-02-05T04:56:28.075Z,49.79
2023-02-05T04:57:28.062Z,48.50
2023-02-05T04:58:28.056Z,47.86
2023-02-05T04:59:28.031Z,47.70
2023-02-05T05:00:28.025Z,46.89
2023-02-05T05:01:28.021Z,45.60
2023-02-05T05:02:28.020Z,47.37
2023-02-05T05:03:28.004Z,50.92
2023-02-05T05:04:27.977Z,46.57
2023-02-05T05:05:27.957Z,50.11
2023-02-05T05:06:27.929Z,45.60
2023-02-05T05:07:27.919Z,48.18
2023-02-05T05:08:27.925Z,50.27
2023-02-05T05:09:27.896Z,51.56
2023-02-05T05:10:27.878Z,61.71
2023-02-05T05:11:27.868Z,47.37
2023-02-05T05:12:27.849Z,45.92
2023-02-05T05:13:27.861Z,48.98
2023-02-05T05:14:27.830Z,49.63
2023-02-05T05:15:27.819Z,57.04
2023-02-05T05:16:27.802Z,48.82
2023-02-05T05:17:27.791Z,56.56
2023-02-05T05:18:27.801Z,48.18
2023-02-05T05:19:27.788Z,50.27
2023-02-05T05:20:27.744Z,59.94
2023-02-05T05:21:27.751Z,47.70
2023-02-05T05:22:27.724Z,51.72
2023-02-05T05:23:27.728Z,48.50
2023-02-05T05:24:27.695Z,53.01
2023-02-05T05:25:27.680Z,48.34
2023-02-05T05:26:27.661Z,52.37
2023-02-05T05:27:27.650Z,48.98
2023-02-05T05:28:27.654Z,47.21
2023-02-05T05:29:27.629Z,56.24
2023-02-05T05:30:27.609Z,48.82
2023-02-05T05:31:27.610Z,47.53
2023-02-05T05:32:27.583Z,48.02
2023-02-05T05:33:27.591Z,54.62
2023-02-05T05:34:27.552Z,47.70
2023-02-05T05:35:27.545Z,49.47
2023-02-05T05:36:27.531Z,48.98
2023-02-05T05:37:27.550Z,48.50
2023-02-05T05:38:27.513Z,59.78
2023-02-05T05:39:27.510Z,55.43
2023-02-05T05:40:27.474Z,49.31
2023-02-05T05:41:27.474Z,47.70
2023-02-05T05:42:27.442Z,46.25
2023-02-05T05:43:27.461Z,48.50
2023-02-05T05:44:27.414Z,47.70
2023-02-05T05:45:27.413Z,46.25
2023-02-05T05:46:27.426Z,50.27
2023-02-05T05:47:27.424Z,47.37
2023-02-05T05:48:27.383Z,48.82
2023-02-05T05:49:27.355Z,49.95
2023-02-05T05:50:27.344Z,50.43
2023-02-05T05:51:27.338Z,46.25
2023-02-05T05:52:27.305Z,46.73
2023-02-05T05:53:27.315Z,48.66
2023-02-05T05:54:27.284Z,45.92
2023-02-05T05:55:27.278Z,70.42
2023-02-05T05:56:27.271Z,52.21
2023-02-05T05:57:27.245Z,47.21
2023-02-05T05:58:27.260Z,49.79
2023-02-05T05:59:27.222Z,46.57
2023-02-05T06:00:27.198Z,50.27
2023-02-05T06:01:27.190Z,54.30
2023-02-05T06:02:27.186Z,52.21
2023-02-05T06:03:27.187Z,47.53
2023-02-05T06:04:27.171Z,48.66
2023-02-05T06:05:27.142Z,47.05
2023-02-05T06:06:27.120Z,47.53
2023-02-05T06:07:27.107Z,47.21
2023-02-05T06:08:27.107Z,46.25
2023-02-05T06:09:27.097Z,61.87
2023-02-05T06:10:27.067Z,51.40
2023-02-05T06:11:27.049Z,48.82
2023-02-05T06:12:27.049Z,47.05
2023-02-05T06:13:27.048Z,48.34
2023-02-05T06:14:27.008Z,53.50
2023-02-05T06:15:27.001Z,49.15
2023-02-05T06:16:26.979Z,48.34
2023-02-05T06:17:26.970Z,53.98
2023-02-05T06:18:26.959Z,46.89
2023-02-05T06:19:26.968Z,59.14
2023-02-05T06:20:27.068Z,46.73
2023-02-05T06:21:26.920Z,58.01
2023-02-05T06:22:26.902Z,46.25
2023-02-05T06:23:26.890Z,50.27
2023-02-05T06:24:27.377Z,50.11
2023-02-05T06:25:26.868Z,46.89
2023-02-05T06:26:26.852Z,45.92
2023-02-05T06:27:26.846Z,45.28
2023-02-05T06:28:27.279Z,60.75
2023-02-05T06:29:26.948Z,62.20
2023-02-05T06:30:26.800Z,51.24
2023-02-05T06:31:26.898Z,49.95
2023-02-05T06:32:26.999Z,48.50
2023-02-05T06:33:26.761Z,48.50
2023-02-05T06:34:26.765Z,56.07
2023-02-05T06:35:26.733Z,58.65
2023-02-05T06:36:26.711Z,50.27
2023-02-05T06:37:34.159Z,51.56
2023-02-05T06:38:27.690Z,58.65
2023-02-05T06:39:26.703Z,51.40
2023-02-05T06:40:26.662Z,48.82
2023-02-05T06:41:26.652Z,57.85
2023-02-05T06:42:26.641Z,49.31
2023-02-05T06:43:26.628Z,67.68
2023-02-05T06:44:26.724Z,50.27
2023-02-05T06:45:26.596Z,59.62
2023-02-05T06:46:26.611Z,57.36
2023-02-05T06:47:26.576Z,59.30
2023-02-05T06:48:26.574Z,49.63
2023-02-05T06:49:26.581Z,47.21
2023-02-05T06:50:26.526Z,55.43
2023-02-05T06:51:26.513Z,55.43
2023-02-05T06:52:26.503Z,51.24
2023-02-05T06:53:26.485Z,50.27
2023-02-05T06:54:26.503Z,57.04
2023-02-05T06:55:26.463Z,57.85
2023-02-05T06:56:26.448Z,50.43
2023-02-05T06:57:26.444Z,58.65
2023-02-05T06:58:26.416Z,47.86
2023-02-05T06:59:26.435Z,47.70
2023-02-05T07:00:26.389Z,64.29
2023-02-05T07:01:26.394Z,56.24
2023-02-05T07:02:26.394Z,52.21
2023-02-05T07:03:26.360Z,48.34
2023-02-05T07:04:26.363Z,48.82
2023-02-05T07:05:26.326Z,49.31
2023-02-05T07:06:26.307Z,58.81
2023-02-05T07:07:26.314Z,51.40
2023-02-05T07:08:26.288Z,52.69
2023-02-05T07:09:26.305Z,48.34
2023-02-05T07:10:26.260Z,50.11
2023-02-05T07:11:26.250Z,58.97
2023-02-05T07:12:26.231Z,58.49
2023-02-05T07:13:26.221Z,59.30
2023-02-05T07:14:26.232Z,47.86
2023-02-05T07:15:26.200Z,62.04
2023-02-05T07:16:26.228Z,48.34
2023-02-05T07:17:26.182Z,48.98
2023-02-05T07:18:26.159Z,48.02
2023-02-05T07:19:26.161Z,49.95
2023-02-05T07:20:26.138Z,56.72
2023-02-05T07:21:26.119Z,50.27
2023-02-05T07:22:26.103Z,50.27
2023-02-05T07:23:26.093Z,49.15
2023-02-05T07:24:26.093Z,49.15
2023-02-05T07:25:26.072Z,52.21
2023-02-05T07:26:26.042Z,48.98
2023-02-05T07:27:26.040Z,49.31
2023-02-05T07:28:26.116Z,48.98
2023-02-05T07:29:26.024Z,48.18
2023-02-05T07:30:33.056Z,48.66
2023-02-05T07:31:26.036Z,48.82
2023-02-05T07:32:25.968Z,64.78
2023-02-05T07:33:25.959Z,55.59
2023-02-05T07:34:25.981Z,49.15
2023-02-05T07:35:25.932Z,48.98
2023-02-05T07:36:25.909Z,51.56
2023-02-05T07:37:25.924Z,48.18
2023-02-05T07:38:25.889Z,48.66
2023-02-05T07:39:25.877Z,60.59
2023-02-05T07:40:25.895Z,53.66
2023-02-05T07:41:25.855Z,54.95
2023-02-05T07:42:25.834Z,57.20
2023-02-05T07:43:25.816Z,52.05
2023-02-05T07:44:25.816Z,51.08
2023-02-05T07:45:25.805Z,49.79
2023-02-05T07:46:25.976Z,48.82
2023-02-05T07:47:25.778Z,68.32
2023-02-05T07:48:25.766Z,58.97
2023-02-05T07:49:25.740Z,50.60
2023-02-05T07:50:25.742Z,57.52
2023-02-05T07:51:26.710Z,56.88
2023-02-05T07:52:25.713Z,51.08
2023-02-05T07:53:25.693Z,55.11
2023-02-05T07:54:25.735Z,58.49
2023-02-05T07:55:25.676Z,52.53
2023-02-05T07:56:25.721Z,53.98
2023-02-05T07:57:25.656Z,52.21
2023-02-05T07:58:25.603Z,60.42
2023-02-05T07:59:25.602Z,55.11
2023-02-05T08:00:25.604Z,56.07
2023-02-05T08:01:25.628Z,63.65
2023-02-05T08:02:25.551Z,57.52
2023-02-05T08:03:25.545Z,53.33
2023-02-05T08:04:25.558Z,51.72
2023-02-05T08:05:25.522Z,49.79
2023-02-05T08:06:25.554Z,76.05
2023-02-05T08:07:25.486Z,52.85
2023-02-05T08:08:25.475Z,54.95
2023-02-05T08:09:25.480Z,54.79
2023-02-05T08:10:25.453Z,52.37
2023-02-05T08:11:25.474Z,54.95
2023-02-05T08:12:25.414Z,54.14
2023-02-05T08:13:25.414Z,53.66
2023-02-05T08:14:25.385Z,50.60
2023-02-05T08:15:25.407Z,54.14
2023-02-05T08:16:25.373Z,52.69
2023-02-05T08:17:25.356Z,50.92
2023-02-05T08:18:25.342Z,50.27
2023-02-05T08:19:25.324Z,53.98
2023-02-05T08:20:25.324Z,57.20
2023-02-05T08:21:25.304Z,55.75
2023-02-05T08:22:25.315Z,53.01
2023-02-05T08:23:25.278Z,53.98
2023-02-05T08:24:25.255Z,52.85
2023-02-05T08:25:25.329Z,53.01
2023-02-05T08:26:25.235Z,61.07
2023-02-05T08:27:25.227Z,50.92
2023-02-05T08:28:25.204Z,50.60
2023-02-05T08:29:25.196Z,52.37
2023-02-05T08:30:25.285Z,53.01
2023-02-05T08:31:25.202Z,54.30
2023-02-05T08:32:25.150Z,54.14
2023-02-05T08:33:25.139Z,58.49
2023-02-05T08:34:25.136Z,75.57
2023-02-05T08:35:25.136Z,54.95
2023-02-05T08:36:25.106Z,64.61
2023-02-05T08:37:25.093Z,58.65
2023-02-05T08:38:25.079Z,57.20
2023-02-05T08:39:25.068Z,53.50
2023-02-05T08:40:25.058Z,54.14
2023-02-05T08:41:25.034Z,53.33
2023-02-05T08:42:25.028Z,52.69
2023-02-05T08:43:25.020Z,57.36
2023-02-05T08:44:25.019Z,57.04
2023-02-05T08:45:24.998Z,64.78
2023-02-05T08:46:24.967Z,56.72
2023-02-05T08:47:24.947Z,51.40
2023-02-05T08:48:24.939Z,52.21
2023-02-05T08:49:24.918Z,53.17
2023-02-05T08:50:24.936Z,59.62
2023-02-05T08:51:24.896Z,60.10
2023-02-05T08:52:24.902Z,56.07
2023-02-05T08:53:24.875Z,59.30
2023-02-05T08:54:24.875Z,62.68
2023-02-05T08:55:24.858Z,60.26
2023-02-05T08:56:24.840Z,55.43
2023-02-05T08:57:24.818Z,55.27
2023-02-05T08:58:24.809Z,53.33
2023-02-05T08:59:24.808Z,53.33
2023-02-05T09:00:24.803Z,65.26
2023-02-05T09:01:24.801Z,53.01
2023-02-05T09:02:28.055Z,60.26
2023-02-05T09:03:24.738Z,55.75
2023-02-05T09:04:24.757Z,61.07
2023-02-05T09:05:24.720Z,53.01
2023-02-05T09:06:24.709Z,56.56
2023-02-05T09:07:24.677Z,67.35
2023-02-05T09:08:24.682Z,52.85
2023-02-05T09:09:24.709Z,65.10
2023-02-05T09:10:24.745Z,52.37
2023-02-05T09:11:24.618Z,51.72
2023-02-05T09:12:24.609Z,52.37
2023-02-05T09:13:24.599Z,56.40
2023-02-05T09:14:24.589Z,59.94
2023-02-05T09:15:24.570Z,53.50
2023-02-05T09:16:24.577Z,63.65
2023-02-05T09:17:24.552Z,51.88
2023-02-05T09:18:24.547Z,54.79
2023-02-05T09:19:24.549Z,53.17
2023-02-05T09:20:24.579Z,56.56
2023-02-05T09:21:24.510Z,54.79
2023-02-05T09:22:24.481Z,51.88
2023-02-05T09:23:24.473Z,54.46
2023-02-05T09:24:24.465Z,66.87
2023-02-05T09:25:24.441Z,53.50
2023-02-05T09:26:24.452Z,51.24
2023-02-05T09:27:24.417Z,57.36
2023-02-05T09:28:24.402Z,53.66
2023-02-05T09:29:24.387Z,58.01
2023-02-05T09:30:24.438Z,59.14
2023-02-05T09:31:24.482Z,61.71
2023-02-05T09:32:24.357Z,64.78
2023-02-05T09:33:24.349Z,63.16
2023-02-05T09:34:24.330Z,68.80
2023-02-05T09:35:24.318Z,60.10
2023-02-05T09:36:24.343Z,64.78
2023-02-05T09:37:24.295Z,61.55
2023-02-05T09:38:24.277Z,61.55
2023-02-05T09:39:56.088Z,66.87
2023-02-05T09:40:26.773Z,53.50
2023-02-05T09:41:24.251Z,55.91
2023-02-05T09:42:24.250Z,54.46
2023-02-05T09:43:24.205Z,52.05
2023-02-05T09:44:24.187Z,54.95
2023-02-05T09:45:24.176Z,52.69
2023-02-05T09:46:24.211Z,51.56
2023-02-05T09:47:24.157Z,51.72
2023-02-05T09:48:24.155Z,54.95
2023-02-05T09:49:24.117Z,51.24
2023-02-05T09:50:24.141Z,52.69
2023-02-05T09:51:24.107Z,52.37
2023-02-05T09:52:24.087Z,51.08
2023-02-05T09:53:24.056Z,65.42
2023-02-05T09:54:24.053Z,52.37
2023-02-05T09:55:24.034Z,51.88
2023-02-05T09:56:24.067Z,50.60
2023-02-05T09:57:24.025Z,51.56
2023-02-05T09:58:24.009Z,50.76
2023-02-05T09:59:23.985Z,54.14
2023-02-05T10:00:24.089Z,57.04
2023-02-05T10:01:23.998Z,53.82
2023-02-05T10:02:23.944Z,50.76
2023-02-05T10:03:23.923Z,53.66
2023-02-05T10:04:23.963Z,54.30
2023-02-05T10:05:23.892Z,51.40
2023-02-05T10:06:23.893Z,63.00
2023-02-05T10:07:23.861Z,69.93
2023-02-05T10:08:23.853Z,54.30
2023-02-05T10:09:23.839Z,54.95
2023-02-05T10:10:23.862Z,64.13
2023-02-05T10:11:23.821Z,62.20
2023-02-05T10:12:23.803Z,61.39
2023-02-05T10:13:23.793Z,58.01
2023-02-05T10:14:23.770Z,57.52
2023-02-05T10:15:23.757Z,56.72
2023-02-05T10:16:23.764Z,61.07
2023-02-05T10:17:23.727Z,53.82
2023-02-05T10:18:23.723Z,50.27
2023-02-05T10:19:23.698Z,50.11
2023-02-05T10:20:23.699Z,52.85
2023-02-05T10:21:23.688Z,52.37
2023-02-05T10:22:23.661Z,52.69
2023-02-05T10:23:23.645Z,51.88
2023-02-05T10:24:23.630Z,53.33
2023-02-05T10:25:23.622Z,60.75
2023-02-05T10:26:23.612Z,52.85
2023-02-05T10:27:23.605Z,50.92
2023-02-05T10:28:23.583Z,53.01
2023-02-05T10:29:23.577Z,50.76
2023-02-05T10:30:23.628Z,51.88
2023-02-05T10:31:23.714Z,50.76
2023-02-05T10:32:23.612Z,51.72
2023-02-05T10:33:23.514Z,52.21
2023-02-05T10:34:23.507Z,51.40
2023-02-05T10:35:23.490Z,53.50
2023-02-05T10:36:23.476Z,49.95
2023-02-05T10:37:23.466Z,51.88
2023-02-05T10:38:23.478Z,51.40
2023-02-05T10:39:23.449Z,53.01
2023-02-05T10:40:23.416Z,51.72
2023-02-05T10:41:23.416Z,53.50
2023-02-05T10:42:23.406Z,53.82
2023-02-05T10:43:23.385Z,55.91
2023-02-05T10:44:23.392Z,55.43
2023-02-05T10:45:23.355Z,55.27
2023-02-05T10:46:23.388Z,53.33
2023-02-05T10:47:23.345Z,56.07
2023-02-05T10:48:23.325Z,57.36
2023-02-05T10:49:23.302Z,54.62
2023-02-05T10:50:23.298Z,52.85
2023-02-05T10:51:23.274Z,51.88
2023-02-05T10:52:23.274Z,55.59
2023-02-05T10:53:23.249Z,56.24
2023-02-05T10:54:23.234Z,52.21
2023-02-05T10:55:23.225Z,52.05
2023-02-05T10:56:23.206Z,54.14
2023-02-05T10:57:23.211Z,53.33
2023-02-05T10:58:23.189Z,54.14
2023-02-05T10:59:23.173Z,53.66
2023-02-05T11:00:23.221Z,60.59
2023-02-05T11:01:23.168Z,56.72
2023-02-05T11:02:23.169Z,52.69
2023-02-05T11:03:23.106Z,51.72
2023-02-05T11:04:23.106Z,51.88
2023-02-05T11:05:23.086Z,52.69
2023-02-05T11:06:23.076Z,53.01
2023-02-05T11:07:23.078Z,52.37
2023-02-05T11:08:23.154Z,53.17
2023-02-05T11:09:23.029Z,53.33
2023-02-05T11:10:23.052Z,55.75
2023-02-05T11:11:23.023Z,59.62
2023-02-05T11:12:23.003Z,55.59
2023-02-05T11:13:22.992Z,55.75
2023-02-05T11:14:22.957Z,53.01
2023-02-05T11:15:22.954Z,50.27
2023-02-05T11:16:23.006Z,51.24
2023-02-05T11:17:22.927Z,53.33
2023-02-05T11:18:22.928Z,52.37
2023-02-05T11:19:23.138Z,52.85
2023-02-05T11:20:22.891Z,53.17
2023-02-05T11:21:22.867Z,54.95
2023-02-05T11:22:22.856Z,56.56
2023-02-05T11:23:22.870Z,62.84
2023-02-05T11:24:22.835Z,52.53
2023-02-05T11:25:22.828Z,53.01
2023-02-05T11:26:22.814Z,52.05
2023-02-05T11:27:22.787Z,54.62
2023-02-05T11:28:22.798Z,57.69
2023-02-05T11:29:22.765Z,52.21
2023-02-05T11:30:47.630Z,53.33
2023-02-05T11:31:23.791Z,54.30
2023-02-05T11:32:22.829Z,51.72
2023-02-05T11:33:22.848Z,53.33
2023-02-05T11:34:22.701Z,54.46
2023-02-05T11:35:22.689Z,52.21
2023-02-05T11:36:22.677Z,53.82
2023-02-05T11:37:22.656Z,53.50
2023-02-05T11:38:22.657Z,50.60
2023-02-05T11:39:22.649Z,56.72
2023-02-05T11:40:22.622Z,58.01
2023-02-05T11:41:22.598Z,52.69
2023-02-05T11:42:22.600Z,51.40
2023-02-05T11:43:22.599Z,53.50
2023-02-05T11:44:22.567Z,55.91
2023-02-05T11:45:22.567Z,54.46
2023-02-05T11:46:22.550Z,53.50
2023-02-05T11:47:22.518Z,53.98
2023-02-05T11:48:22.532Z,55.75
2023-02-05T11:49:22.503Z,64.13
2023-02-05T11:50:22.487Z,58.81
2023-02-05T11:51:22.468Z,53.01
2023-02-05T11:52:22.469Z,53.01
2023-02-05T11:53:22.458Z,52.85
2023-02-05T11:54:22.429Z,59.78
2023-02-05T11:55:22.412Z,53.33
2023-02-05T11:56:24.343Z,53.50
2023-02-05T11:57:22.390Z,53.01
2023-02-05T11:58:34.893Z,69.45
2023-02-05T11:59:23.351Z,54.95
2023-02-05T12:00:22.345Z,63.49
2023-02-05T12:01:22.345Z,56.72
2023-02-05T12:02:22.331Z,63.16
2023-02-05T12:03:22.367Z,56.88
2023-02-05T12:04:22.333Z,57.20
2023-02-05T12:05:22.283Z,62.36
2023-02-05T12:06:22.283Z,53.33
2023-02-05T12:07:22.246Z,56.56
2023-02-05T12:08:22.254Z,59.46
2023-02-05T12:09:22.248Z,53.01
2023-02-05T12:10:22.225Z,55.75
2023-02-05T12:11:22.205Z,52.37
2023-02-05T12:12:22.194Z,58.49
2023-02-05T12:13:22.173Z,54.95
2023-02-05T12:14:22.185Z,52.05
2023-02-05T12:15:22.162Z,54.95
2023-02-05T12:16:22.183Z,53.82
2023-02-05T12:17:22.142Z,58.97
2023-02-05T12:18:22.123Z,55.43
2023-02-05T12:19:22.114Z,54.79
2023-02-05T12:20:22.103Z,53.33
2023-02-05T12:21:22.068Z,51.56
2023-02-05T12:22:22.065Z,52.69
2023-02-05T12:23:22.056Z,55.27
2023-02-05T12:24:22.057Z,54.30
2023-02-05T12:25:22.026Z,52.85
2023-02-05T12:26:22.005Z,59.94
2023-02-05T12:27:21.985Z,51.40
2023-02-05T12:28:21.975Z,55.75
2023-02-05T12:29:21.974Z,55.59
2023-02-05T12:30:21.978Z,53.33
2023-02-05T12:31:21.953Z,52.53
2023-02-05T12:32:21.921Z,52.85
2023-02-05T12:33:22.045Z,53.98
2023-02-05T12:34:21.911Z,52.21
2023-02-05T12:35:21.891Z,61.23
2023-02-05T12:36:21.877Z,53.33
2023-02-05T12:37:21.846Z,56.56
2023-02-05T12:38:32.194Z,53.50
2023-02-05T12:39:22.831Z,54.79
2023-02-05T12:40:21.812Z,51.08
2023-02-05T12:41:21.797Z,53.66
2023-02-05T12:42:21.782Z,53.33
2023-02-05T12:43:21.771Z,52.69
2023-02-05T12:44:21.775Z,54.30
2023-02-05T12:45:21.732Z,52.37
2023-02-05T12:46:21.784Z,53.82
2023-02-05T12:47:21.713Z,54.95
2023-02-05T12:48:21.712Z,56.56
2023-02-05T12:49:21.691Z,52.69
2023-02-05T12:50:21.675Z,53.33
2023-02-05T12:51:21.661Z,58.97
2023-02-05T12:52:21.643Z,54.79
2023-02-05T12:53:21.632Z,55.11